createdAt,value
2023-12-09T00:03:10.842Z,17.05
2023-12-09T00:08:02.890Z,16.75
2023-12-09T00:12:55.790Z,16.17
2023-12-09T00:17:47.592Z,17.63
2023-12-09T00:22:39.748Z,16.75
2023-12-09T00:27:31.702Z,18.33
2023-12-09T00:32:23.746Z,18.73
2023-12-09T00:37:15.761Z,16.48
2023-12-09T00:42:07.648Z,20.08
2023-12-09T00:46:59.469Z,19.20
2023-12-09T00:51:51.278Z,17.95
2023-12-09T00:56:43.122Z,24.08
2023-12-09T01:01:35.149Z,22.88
2023-12-09T01:06:28.464Z,22.17
2023-12-09T01:11:20.258Z,23.17
2023-12-09T01:16:12.076Z,22.63
2023-12-09T01:21:04.383Z,25.27
2023-12-09T01:25:56.216Z,24.73
2023-12-09T01:30:48.113Z,23.55
2023-12-09T01:35:40.064Z,23.65
2023-12-09T01:40:31.971Z,24.80
2023-12-09T01:45:23.835Z,21.55
2023-12-09T01:50:18.819Z,23.55
2023-12-09T01:55:12.089Z,20.50
2023-12-09T02:00:05.180Z,22.50
2023-12-09T02:04:57.681Z,20.58
2023-12-09T02:09:49.778Z,21.52
2023-12-09T02:14:47.616Z,21.05
2023-12-09T02:19:39.720Z,22.10
2023-12-09T02:24:31.910Z,23.45
2023-12-09T02:29:26.097Z,22.30
2023-12-09T02:34:18.266Z,21.85
2023-12-09T02:39:11.553Z,22.08
2023-12-09T02:44:05.573Z,20.05
2023-12-09T02:49:01.161Z,21.13
2023-12-09T02:53:53.170Z,22.30
2023-12-09T02:58:45.091Z,21.92
2023-12-09T03:03:36.952Z,23.30
2023-12-09T03:08:28.815Z,21.67
2023-12-09T03:13:20.654Z,22.08
2023-12-09T03:18:12.627Z,22.27
2023-12-09T03:23:04.495Z,21.88
2023-12-09T03:27:57.309Z,23.67
2023-12-09T03:32:50.358Z,24.13
2023-12-09T03:37:42.243Z,21.95
2023-12-09T03:42:34.129Z,21.70
2023-12-09T03:47:29.440Z,21.45
2023-12-09T03:52:21.782Z,18.05
2023-12-09T03:57:15.718Z,20.48
2023-12-09T04:02:07.656Z,21.10
2023-12-09T04:06:59.610Z,21.92
2023-12-09T04:11:51.438Z,23.30
2023-12-09T04:16:44.041Z,21.67
2023-12-09T04:21:36.042Z,20.38
2023-12-09T04:26:28.222Z,20.50
2023-12-09T04:31:20.141Z,20.30
2023-12-09T04:36:12.551Z,21.73
2023-12-09T04:41:05.431Z,20.58
2023-12-09T04:45:57.282Z,22.50
2023-12-09T04:50:49.391Z,20.77
2023-12-09T04:55:41.842Z,19.13
2023-12-09T05:00:33.841Z,21.98
2023-12-09T05:05:26.568Z,20.35
2023-12-09T05:10:18.408Z,17.05
2023-12-09T05:15:11.045Z,19.65
2023-12-09T05:20:04.635Z,22.20
2023-12-09T05:24:56.458Z,20.92
2023-12-09T05:29:48.267Z,25.05
2023-12-09T05:34:40.226Z,21.15
2023-12-09T05:39:32.174Z,87.88
2023-12-09T05:44:24.026Z,28.88
2023-12-09T05:49:16.220Z,43.47
2023-12-09T05:54:08.201Z,26.38
2023-12-09T05:59:00.085Z,34.55
2023-12-09T06:03:51.900Z,22.00
2023-12-09T06:08:43.770Z,26.10
2023-12-09T06:13:35.713Z,21.60
2023-12-09T06:18:27.766Z,22.05
2023-12-09T06:23:19.740Z,23.63
2023-12-09T06:28:11.629Z,22.17
2023-12-09T06:33:03.695Z,25.60
2023-12-09T06:37:56.320Z,24.83
2023-12-09T06:42:48.288Z,27.10
2023-12-09T06:47:40.237Z,25.80
2023-12-09T06:52:32.145Z,27.25
2023-12-09T06:57:24.135Z,26.92
2023-12-09T07:02:16.037Z,30.15
2023-12-09T07:07:13.635Z,28.42
2023-12-09T07:12:10.326Z,29.13
2023-12-09T07:17:02.179Z,28.58
2023-12-09T07:21:54.225Z,28.17
2023-12-09T07:26:46.115Z,26.48
2023-12-09T07:31:38.142Z,26.92
2023-12-09T07:36:30.053Z,28.92
2023-12-09T07:41:21.864Z,27.23
2023-12-09T07:46:13.681Z,29.98
2023-12-09T07:51:05.837Z,30.05
2023-12-09T07:55:58.533Z,30.38
2023-12-09T08:00:50.387Z,28.02
2023-12-09T08:05:44.315Z,30.50
2023-12-09T08:10:37.586Z,29.85
2023-12-09T08:15:29.334Z,32.83
2023-12-09T08:20:21.513Z,33.53
2023-12-09T08:25:14.203Z,47.10
2023-12-09T08:30:11.748Z,32.42
2023-12-09T08:35:09.627Z,30.25
2023-12-09T08:40:12.999Z,33.20
2023-12-09T08:45:05.449Z,30.65
2023-12-09T08:49:57.268Z,29.85
2023-12-09T08:54:49.187Z,28.55
2023-12-09T08:59:41.080Z,30.10
2023-12-09T09:04:32.849Z,29.88
2023-12-09T09:09:24.638Z,31.67
2023-12-09T09:14:16.725Z,31.45
2023-12-09T09:19:08.733Z,30.67
2023-12-09T09:24:00.769Z,31.85
2023-12-09T09:28:52.579Z,33.83
2023-12-09T09:33:44.542Z,32.55
2023-12-09T09:38:36.529Z,32.97
2023-12-09T09:43:32.073Z,29.27
2023-12-09T09:48:25.913Z,25.60
2023-12-09T09:53:22.102Z,25.55
2023-12-09T09:58:14.480Z,24.42
2023-12-09T10:03:06.856Z,23.65
2023-12-09T10:07:59.057Z,23.30
2023-12-09T10:12:51.791Z,22.95
2023-12-09T10:17:43.847Z,21.60
2023-12-09T10:22:36.329Z,19.00
2023-12-09T10:27:28.362Z,21.10
2023-12-09T10:32:22.018Z,21.80
2023-12-09T10:37:13.998Z,19.33
2023-12-09T10:42:06.173Z,18.55
2023-12-09T10:46:58.013Z,20.48
2023-12-09T10:51:49.890Z,17.45
2023-12-09T10:56:41.991Z,14.73
2023-12-09T11:01:34.011Z,13.38
2023-12-09T11:06:29.067Z,16.48
2023-12-09T11:11:21.001Z,14.15
2023-12-09T11:16:14.965Z,15.70
2023-12-09T11:21:09.935Z,15.57
2023-12-09T11:26:01.849Z,11.25
2023-12-09T11:30:57.379Z,11.77
2023-12-09T11:35:49.783Z,11.73
2023-12-09T11:40:42.287Z,14.75
2023-12-09T11:45:34.290Z,12.52
2023-12-09T11:50:28.551Z,12.13
2023-12-09T11:55:20.922Z,10.15
2023-12-09T12:00:13.375Z,11.95
2023-12-09T12:05:10.246Z,12.10
2023-12-09T12:10:02.281Z,8.85
2023-12-09T12:14:54.186Z,8.98
2023-12-09T12:19:46.245Z,7.28
2023-12-09T12:24:42.208Z,7.25
2023-12-09T12:29:34.041Z,9.23
2023-12-09T12:34:26.127Z,9.80
2023-12-09T12:39:18.062Z,8.63
2023-12-09T12:44:09.972Z,10.10
2023-12-09T12:49:02.068Z,11.98
2023-12-09T12:53:54.113Z,11.45
2023-12-09T12:58:45.934Z,9.50
2023-12-09T13:03:37.833Z,9.10
2023-12-09T13:08:29.705Z,8.60
2023-12-09T13:13:21.478Z,9.52
2023-12-09T13:18:14.136Z,9.90
2023-12-09T13:23:06.245Z,9.43
2023-12-09T13:27:58.925Z,9.60
2023-12-09T13:32:50.790Z,14.52
2023-12-09T13:37:44.393Z,10.20
2023-12-09T13:42:36.582Z,9.70
2023-12-09T13:47:28.386Z,9.00
2023-12-09T13:52:20.250Z,9.27
2023-12-09T13:57:12.143Z,9.07
2023-12-09T14:02:04.135Z,10.27
2023-12-09T14:06:55.986Z,8.45
2023-12-09T14:11:47.812Z,9.20
2023-12-09T14:16:41.519Z,13.80
2023-12-09T14:21:34.336Z,15.73
2023-12-09T14:26:29.392Z,9.30
2023-12-09T14:31:21.192Z,8.40
2023-12-09T14:36:13.049Z,9.90
2023-12-09T14:41:05.660Z,8.23
2023-12-09T14:45:57.529Z,7.97
2023-12-09T14:50:49.351Z,8.60
2023-12-09T14:55:42.096Z,8.63
2023-12-09T15:00:34.167Z,9.60
2023-12-09T15:05:26.788Z,9.93
2023-12-09T15:10:19.042Z,19.30
2023-12-09T15:15:11.349Z,17.42
2023-12-09T15:20:03.531Z,12.25
2023-12-09T15:24:55.337Z,16.58
2023-12-09T15:29:47.578Z,12.23
2023-12-09T15:34:39.729Z,10.80
2023-12-09T15:39:32.281Z,11.45
2023-12-09T15:44:24.128Z,13.40
2023-12-09T15:49:16.081Z,15.35
2023-12-09T15:54:09.099Z,24.33
2023-12-09T15:59:00.968Z,17.13
2023-12-09T16:03:53.557Z,15.98
2023-12-09T16:08:45.900Z,15.05
2023-12-09T16:13:37.777Z,18.77
2023-12-09T16:18:29.829Z,17.75
2023-12-09T16:23:21.846Z,17.45
2023-12-09T16:28:13.697Z,17.85
2023-12-09T16:33:05.587Z,19.45
2023-12-09T16:37:57.497Z,19.52
2023-12-09T16:42:49.387Z,22.27
2023-12-09T16:47:42.351Z,19.70
2023-12-09T16:52:34.800Z,18.63
2023-12-09T16:57:26.867Z,18.30
2023-12-09T17:02:18.692Z,18.50
2023-12-09T17:07:10.907Z,18.95
2023-12-09T17:12:02.726Z,19.15
2023-12-09T17:16:55.329Z,16.95
2023-12-09T17:21:47.365Z,20.90
2023-12-09T17:26:39.243Z,20.75
2023-12-09T17:31:31.432Z,21.13
2023-12-09T17:36:26.737Z,22.63
2023-12-09T17:41:18.626Z,19.65
2023-12-09T17:46:10.409Z,23.02
2023-12-09T17:51:02.366Z,22.77
2023-12-09T17:55:54.129Z,20.95
2023-12-09T18:00:46.077Z,20.00
2023-12-09T18:05:38.277Z,20.27
2023-12-09T18:10:30.260Z,19.60
2023-12-09T18:15:22.190Z,19.45
2023-12-09T18:20:14.934Z,17.33
2023-12-09T18:25:07.076Z,18.08
2023-12-09T18:29:58.865Z,15.73
2023-12-09T18:34:50.656Z,14.25
2023-12-09T18:39:42.532Z,15.93
2023-12-09T18:44:34.790Z,13.07
2023-12-09T18:49:26.688Z,13.55
2023-12-09T18:54:18.571Z,12.52
2023-12-09T18:59:10.647Z,14.35
2023-12-09T19:04:03.440Z,14.32
2023-12-09T19:08:55.469Z,17.52
2023-12-09T19:13:47.393Z,18.02
2023-12-09T19:18:39.375Z,15.00
2023-12-09T19:23:31.394Z,18.38
2023-12-09T19:28:23.214Z,20.25
2023-12-09T19:33:15.159Z,27.02
2023-12-09T19:38:07.134Z,29.63
2023-12-09T19:42:59.052Z,29.40
2023-12-09T19:47:51.767Z,23.75
2023-12-09T19:52:44.415Z,24.42
2023-12-09T19:57:36.231Z,25.35
2023-12-09T20:02:28.311Z,24.83
2023-12-09T20:07:20.510Z,24.85
2023-12-09T20:12:12.499Z,28.60
2023-12-09T20:17:05.606Z,24.90
2023-12-09T20:21:57.498Z,29.00
2023-12-09T20:26:49.286Z,26.17
2023-12-09T20:31:43.439Z,28.60
2023-12-09T20:36:35.255Z,28.33
2023-12-09T20:41:28.273Z,29.27
2023-12-09T20:46:20.088Z,34.72
2023-12-09T20:51:11.959Z,28.60
2023-12-09T20:56:05.616Z,41.55
2023-12-09T21:00:59.626Z,27.15
2023-12-09T21:05:51.528Z,23.00
2023-12-09T21:10:43.556Z,33.38
2023-12-09T21:15:35.456Z,26.88
2023-12-09T21:20:28.921Z,22.58
2023-12-09T21:25:20.805Z,25.35
2023-12-09T21:30:12.849Z,23.48
2023-12-09T21:35:05.048Z,27.60
2023-12-09T21:39:57.731Z,28.25
2023-12-09T21:44:50.621Z,27.52
2023-12-09T21:49:42.691Z,30.08
2023-12-09T21:54:36.331Z,31.52
2023-12-09T21:59:28.146Z,31.65
2023-12-09T22:04:20.132Z,29.75
2023-12-09T22:09:14.784Z,28.20
2023-12-09T22:14:06.639Z,29.30
2023-12-09T22:18:58.672Z,30.20
2023-12-09T22:23:52.046Z,30.35
2023-12-09T22:28:44.788Z,33.17
2023-12-09T22:33:41.267Z,31.17
2023-12-09T22:38:33.358Z,32.13
2023-12-09T22:43:25.257Z,33.65
2023-12-09T22:48:17.213Z,30.45
2023-12-09T22:53:09.094Z,31.67
2023-12-09T22:58:01.047Z,31.60
2023-12-09T23:02:52.923Z,32.20
2023-12-09T23:07:44.772Z,30.90
2023-12-09T23:12:36.631Z,26.15
2023-12-09T23:17:28.546Z,26.38
2023-12-09T23:22:20.558Z,24.02
2023-12-09T23:27:12.412Z,25.48
2023-12-09T23:32:04.696Z,24.00
2023-12-09T23:36:56.672Z,24.88
2023-12-09T23:41:49.138Z,22.15
2023-12-09T23:46:40.986Z,19.70
2023-12-09T23:51:32.916Z,20.05
2023-12-09T23:56:24.836Z,22.90
